Weather reports worldwide

Advertisment
Santon Downham, United Kingdom (99118): temperature & dewpoint: 13.10.2018 11:00:00 - 19.10.2018 11:00:00 (BST)Santon Downham, United Kingdom (99118): temperature -20cm & temperature -100cm: 13.10.2018 11:00:00 - 19.10.2018 11:00:00 (BST)Santon Downham, United Kingdom (99118): precipitation: 13.10.2018 11:00:00 - 19.10.2018 11:00:00 (BST)
Date & Time tt [°C] td [°C] tt -20cm [°C] tt -100cm [°C] rr [mm]
19.10.2018 11:00:00 - - - - -
19.10.2018 10:00:00 4,4 4,2 12,5 14,0 0,0
19.10.2018 09:00:00 2,9 2,8 - - 0,0
19.10.2018 08:00:00 1,5 1,4 - - 0,0
19.10.2018 07:00:00 0,6 0,4 - - 0,0
19.10.2018 06:00:00 0,7 0,5 - - 0,0
19.10.2018 05:00:00 1,4 1,3 - - 0,0
19.10.2018 04:00:00 0,3 0,1 - - 0,0
19.10.2018 03:00:00 0,0 -0,2 - - 0,0
19.10.2018 02:00:00 0,0 -0,4 - - 0,0
19.10.2018 01:00:00 0,4 0,0 - - 0,0
19.10.2018 00:00:00 1,1 0,7 - - 0,0
18.10.2018 23:00:00 1,6 1,2 - - 0,0
18.10.2018 22:00:00 2,4 1,9 - - 0,0
18.10.2018 21:00:00 3,3 2,7 - - 0,0
18.10.2018 20:00:00 4,5 3,9 - - 0,0
18.10.2018 19:00:00 5,7 4,2 - - 0,0
18.10.2018 18:00:00 9,0 5,9 - - 0,0
18.10.2018 17:00:00 12,3 6,1 - - 0,0
18.10.2018 16:00:00 12,4 5,7 - - 0,0
18.10.2018 15:00:00 13,8 6,9 - - 0,0
18.10.2018 14:00:00 14,4 7,0 - - 0,0
18.10.2018 13:00:00 13,7 8,9 - - 0,0
18.10.2018 12:00:00 14,2 9,9 - - 0,0
18.10.2018 11:00:00 12,9 11,8 - - 0,0
18.10.2018 10:00:00 8,7 8,6 13,4 14,2 0,0
18.10.2018 09:00:00 3,4 3,1 - - 0,0
18.10.2018 08:00:00 2,2 2,0 - - 0,0
18.10.2018 07:00:00 2,3 1,9 - - 0,2
18.10.2018 06:00:00 3,0 2,8 - - 0,0
18.10.2018 05:00:00 3,2 2,9 - - 0,0
18.10.2018 04:00:00 3,5 3,2 - - 0,0
18.10.2018 03:00:00 3,8 3,4 - - 0,0
18.10.2018 02:00:00 4,6 4,2 - - 0,0
18.10.2018 01:00:00 5,2 4,8 - - 0,0
18.10.2018 00:00:00 5,8 5,4 - - 0,0
17.10.2018 23:00:00 6,8 6,4 - - 0,0
17.10.2018 22:00:00 7,9 7,5 - - 0,0
17.10.2018 21:00:00 8,2 7,7 - - 0,0
17.10.2018 20:00:00 9,2 8,5 - - 0,0
17.10.2018 19:00:00 10,7 9,9 - - 0,0
17.10.2018 18:00:00 12,6 11,3 - - 0,0
17.10.2018 17:00:00 14,6 12,1 - - 0,0
17.10.2018 16:00:00 15,4 12,0 - - 0,0
17.10.2018 15:00:00 14,6 12,2 - - 0,0
17.10.2018 14:00:00 14,4 12,5 - - 0,0
17.10.2018 13:00:00 14,0 12,6 - - 0,0
17.10.2018 12:00:00 13,2 12,4 - - 0,6
17.10.2018 11:00:00 12,9 12,1 - - 0,0
17.10.2018 10:00:00 12,5 11,5 14,0 14,2 0,2
17.10.2018 09:00:00 12,4 10,6 - - 0,0
17.10.2018 08:00:00 12,0 10,3 - - 0,0
17.10.2018 07:00:00 11,3 10,5 - - 0,0
17.10.2018 06:00:00 9,7 9,4 - - 0,0
17.10.2018 05:00:00 8,1 7,3 - - 0,0
17.10.2018 04:00:00 10,3 9,3 - - 0,0
17.10.2018 03:00:00 11,7 9,7 - - 0,0
17.10.2018 02:00:00 12,5 10,2 - - 0,0
17.10.2018 01:00:00 13,4 10,4 - - 0,0
17.10.2018 00:00:00 14,1 11,3 - - 0,0
16.10.2018 23:00:00 14,4 12,6 - - 0,0
16.10.2018 22:00:00 14,4 12,4 - - 0,0
16.10.2018 21:00:00 14,9 12,6 - - 0,0
16.10.2018 20:00:00 15,8 13,0 - - 0,0
16.10.2018 19:00:00 15,9 14,9 - - 0,0
16.10.2018 18:00:00 17,4 15,1 - - 0,0
16.10.2018 17:00:00 19,2 14,6 - - 0,0
16.10.2018 16:00:00 20,3 14,3 - - 0,0
16.10.2018 15:00:00 20,7 14,0 - - 0,0
16.10.2018 14:00:00 20,2 14,3 - - 0,0
16.10.2018 13:00:00 19,3 14,8 - - 0,2
16.10.2018 12:00:00 17,3 14,2 - - 0,0
16.10.2018 11:00:00 15,8 14,6 - - 0,0
16.10.2018 10:00:00 15,2 14,9 13,9 14,0 0,0
16.10.2018 09:00:00 14,1 13,9 - - 0,0
16.10.2018 08:00:00 13,3 13,1 - - 0,0
16.10.2018 07:00:00 13,2 13,0 - - 0,0
16.10.2018 06:00:00 13,0 12,8 - - 0,0
16.10.2018 05:00:00 12,4 12,2 - - 0,2
16.10.2018 04:00:00 12,2 12,0 - - 0,0
16.10.2018 03:00:00 12,1 11,9 - - 0,0
16.10.2018 02:00:00 12,0 11,7 - - 0,0
16.10.2018 01:00:00 12,1 11,8 - - 0,0
16.10.2018 00:00:00 12,1 11,7 - - 0,0
15.10.2018 23:00:00 12,2 11,8 - - 0,0
15.10.2018 22:00:00 12,4 12,0 - - 0,0
15.10.2018 21:00:00 12,5 11,9 - - 0,0
15.10.2018 20:00:00 12,5 11,7 - - 0,0
15.10.2018 19:00:00 12,5 11,6 - - 0,0
15.10.2018 18:00:00 12,6 11,6 - - 0,0
15.10.2018 17:00:00 12,8 11,9 - - 0,0
15.10.2018 16:00:00 13,1 12,0 - - 0,0
15.10.2018 15:00:00 13,2 12,2 - - 0,0
15.10.2018 14:00:00 13,2 12,4 - - 0,0
15.10.2018 13:00:00 13,5 12,4 - - 0,0
15.10.2018 12:00:00 13,5 12,5 - - 0,0
15.10.2018 11:00:00 13,1 12,4 - - 0,2
15.10.2018 10:00:00 12,8 12,2 13,9 14,0 0,0
15.10.2018 09:00:00 12,7 12,1 - - 0,0
15.10.2018 08:00:00 12,5 12,0 - - 0,0
15.10.2018 07:00:00 12,3 11,8 - - 0,0
15.10.2018 06:00:00 12,2 11,7 - - 0,0
15.10.2018 05:00:00 12,0 11,5 - - 0,0
15.10.2018 04:00:00 11,8 11,3 - - 1,4
15.10.2018 03:00:00 11,4 11,0 - - 2,4
15.10.2018 02:00:00 11,3 10,8 - - 4,4
15.10.2018 01:00:00 11,1 10,6 - - 1,8
15.10.2018 00:00:00 10,8 10,2 - - 0,6
14.10.2018 23:00:00 10,7 10,2 - - 1,6
14.10.2018 22:00:00 10,6 10,0 - - 0,2
14.10.2018 21:00:00 10,5 9,9 - - 0,0
14.10.2018 20:00:00 10,2 9,5 - - 0,2
14.10.2018 19:00:00 10,1 9,3 - - 0,2
14.10.2018 18:00:00 10,3 9,5 - - 0,2
14.10.2018 17:00:00 10,7 9,7 - - 0,6
14.10.2018 16:00:00 11,0 10,2 - - 1,0
14.10.2018 15:00:00 11,6 10,6 - - 0,8
14.10.2018 14:00:00 12,3 11,4 - - 0,0
14.10.2018 13:00:00 13,2 12,1 - - 0,0
14.10.2018 12:00:00 13,7 12,9 - - 3,2
14.10.2018 11:00:00 14,1 13,3 - - 0,0
14.10.2018 10:00:00 14,4 13,1 14,4 14,0 0,0
14.10.2018 09:00:00 14,5 13,2 - - 0,8
14.10.2018 08:00:00 15,2 12,4 - - 0,2
14.10.2018 07:00:00 16,0 12,1 - - 0,0
14.10.2018 06:00:00 16,7 13,3 - - 0,0
14.10.2018 05:00:00 17,7 15,6 - - 0,0
14.10.2018 04:00:00 17,3 15,5 - - 0,0
14.10.2018 03:00:00 17,8 15,4 - - 0,0
14.10.2018 02:00:00 18,5 15,4 - - 0,0
14.10.2018 01:00:00 18,7 15,4 - - 0,0
14.10.2018 00:00:00 17,5 14,5 - - 0,0
13.10.2018 23:00:00 19,4 15,1 - - 0,0
13.10.2018 22:00:00 20,1 15,2 - - 0,0
13.10.2018 21:00:00 20,3 15,6 - - 0,0
13.10.2018 20:00:00 20,4 15,7 - - 0,0
13.10.2018 19:00:00 21,2 15,5 - - 0,0
13.10.2018 18:00:00 21,7 15,5 - - 0,0
13.10.2018 17:00:00 22,4 15,6 - - 0,0
13.10.2018 16:00:00 23,3 15,3 - - 0,0
13.10.2018 15:00:00 24,6 14,3 - - 0,0
13.10.2018 14:00:00 24,9 12,8 - - 0,0
13.10.2018 13:00:00 25,3 13,4 - - 0,0
13.10.2018 12:00:00 24,0 13,2 - - 0,0
13.10.2018 11:00:00 21,9 13,2 - - 0,0

tt = temperature
td = dewpoint
tt -20cm = temperature -20cm
tt -100cm = temperature -100cm
rr = precipitation

Next stations